Time;durP1;ratioP1;P1;durP2;ratioP2;P2;SDS_P1;SDS_P2;PMS_P1;PMS_P2;Temp;Humidity;BMP_temperature;BMP_pressure;BME280_temperature;BME280_humidity;BME280_pressure;Samples;Min_cycle;Max_cycle;Signal;HPM_P1;HPM_P2
2022/07/12 00:01:07;;;;;;;0.10;0.10;;;14.80;99.90;;;;;;5024078;28;20277;-80
2022/07/12 00:03:33;;;;;;;0.10;0.10;;;14.70;99.90;;;;;;5028373;28;20474;-80
2022/07/12 00:06:00;;;;;;;0.10;0.10;;;14.70;99.90;;;;;;5018237;28;20628;-80
2022/07/12 00:08:25;;;;;;;0.10;0.10;;;14.60;99.90;;;;;;5033937;28;20442;-80
2022/07/12 00:10:52;;;;;;;0.10;0.10;;;14.60;99.90;;;;;;5027755;28;20834;-80
2022/07/12 00:13:17;;;;;;;0.10;0.10;;;14.50;99.90;;;;;;5024176;28;20229;-80
2022/07/12 00:15:43;;;;;;;0.10;0.10;;;14.50;99.90;;;;;;5022687;28;20442;-80
2022/07/12 00:18:09;;;;;;;0.10;0.10;;;14.40;99.90;;;;;;5018774;28;20282;-80
2022/07/12 00:20:35;;;;;;;0.10;0.10;;;14.30;99.90;;;;;;5041696;28;20552;-80
2022/07/12 00:23:01;;;;;;;0.10;0.10;;;14.20;99.90;;;;;;5028536;28;20934;-80
2022/07/12 00:25:27;;;;;;;0.10;0.10;;;14.30;99.90;;;;;;5023886;28;20490;-80
2022/07/12 00:27:53;;;;;;;0.10;0.10;;;14.40;99.90;;;;;;5026903;28;20191;-80
2022/07/12 00:30:18;;;;;;;0.10;0.10;;;14.30;99.90;;;;;;5038587;28;20201;-80
2022/07/12 00:32:44;;;;;;;0.10;0.10;;;14.30;99.90;;;;;;5039400;28;20459;-80
2022/07/12 00:35:10;;;;;;;0.10;0.10;;;14.10;99.90;;;;;;5015203;28;20642;-80
2022/07/12 00:37:36;;;;;;;0.10;0.10;;;14.10;99.90;;;;;;5034099;28;20876;-80
2022/07/12 00:40:06;;;;;;;0.10;0.10;;;14.10;99.90;;;;;;5013125;28;20468;-80
2022/07/12 00:42:32;;;;;;;0.10;0.10;;;14.20;99.90;;;;;;5015664;28;20617;-80
2022/07/12 00:44:58;;;;;;;0.10;0.10;;;14.10;99.90;;;;;;5013962;28;20485;-80
2022/07/12 00:47:40;;;;;;;0.10;0.10;;;14.20;99.90;;;;;;5024726;28;20442;-80
2022/07/12 00:50:06;;;;;;;0.10;0.10;;;14.20;99.90;;;;;;5033723;28;20197;-79
2022/07/12 00:52:32;;;;;;;0.10;0.10;;;14.10;99.90;;;;;;5021691;28;20933;-80
2022/07/12 00:54:57;;;;;;;0.10;0.10;;;14.20;99.90;;;;;;5027750;28;20470;-80
2022/07/12 00:57:23;;;;;;;0.10;0.10;;;14.10;99.90;;;;;;5030428;28;20196;-80
2022/07/12 00:59:49;;;;;;;0.10;0.10;;;14.20;99.90;;;;;;5015334;28;20257;-79
2022/07/12 01:02:15;;;;;;;0.10;0.10;;;14.10;99.90;;;;;;5025940;28;20831;-80
2022/07/12 01:04:41;;;;;;;0.10;0.10;;;14.10;99.90;;;;;;5015139;28;21082;-80
2022/07/12 01:07:07;;;;;;;0.10;0.10;;;14.20;99.90;;;;;;5020537;28;20249;-80
2022/07/12 01:09:33;;;;;;;0.10;0.10;;;14.10;99.90;;;;;;5016758;28;20566;-80
2022/07/12 01:11:59;;;;;;;0.10;0.10;;;14.00;99.90;;;;;;5016545;28;20219;-80
2022/07/12 01:14:25;;;;;;;0.10;0.10;;;14.00;99.90;;;;;;5022875;28;20195;-80
2022/07/12 01:16:51;;;;;;;0.10;0.10;;;14.00;99.90;;;;;;5029609;28;20447;-80
2022/07/12 01:19:20;;;;;;;0.10;0.10;;;13.90;99.90;;;;;;5026944;28;20486;-81
2022/07/12 01:21:48;;;;;;;0.10;0.10;;;14.00;99.90;;;;;;5029183;28;20773;-80
2022/07/12 01:24:15;;;;;;;0.10;0.10;;;13.90;99.90;;;;;;5024845;28;20735;-80
2022/07/12 01:26:40;;;;;;;0.10;0.10;;;14.00;99.90;;;;;;5026138;28;20497;-80
2022/07/12 01:29:07;;;;;;;0.10;0.10;;;14.00;99.90;;;;;;5023017;28;20479;-80
2022/07/12 01:31:36;;;;;;;0.20;0.20;;;13.90;99.90;;;;;;5013071;28;20196;-80
2022/07/12 01:34:03;;;;;;;0.10;0.10;;;14.00;99.90;;;;;;5017011;28;20506;-80
2022/07/12 01:36:29;;;;;;;0.10;0.10;;;14.00;99.90;;;;;;5016353;28;22089;-80
2022/07/12 01:38:55;;;;;;;0.10;0.10;;;13.90;99.90;;;;;;5023148;28;20810;-80
2022/07/12 01:41:23;;;;;;;0.10;0.10;;;13.80;99.90;;;;;;5028644;28;20446;-80
2022/07/12 01:43:49;;;;;;;0.10;0.10;;;13.80;99.90;;;;;;5025267;28;20570;-80
2022/07/12 01:46:15;;;;;;;0.10;0.10;;;13.70;99.90;;;;;;5022750;28;20438;-80
2022/07/12 01:48:40;;;;;;;0.10;0.10;;;13.60;99.90;;;;;;5032297;28;20533;-80
2022/07/12 01:51:06;;;;;;;0.10;0.10;;;13.70;99.90;;;;;;5029531;28;20245;-80
2022/07/12 01:53:32;;;;;;;0.10;0.10;;;13.70;99.90;;;;;;5022605;28;20190;-80
2022/07/12 01:55:57;;;;;;;0.10;0.10;;;13.60;99.90;;;;;;5026576;28;20187;-80
2022/07/12 01:58:23;;;;;;;0.10;0.10;;;13.60;99.90;;;;;;5023387;28;20434;-79
2022/07/12 02:00:52;;;;;;;0.10;0.10;;;13.60;99.90;;;;;;5022294;28;20598;-80
2022/07/12 02:03:20;;;;;;;0.10;0.10;;;13.70;99.90;;;;;;5024038;28;20511;-80
2022/07/12 02:05:46;;;;;;;0.10;0.10;;;13.60;99.90;;;;;;5021534;28;20829;-79
2022/07/12 02:08:14;;;;;;;0.10;0.10;;;13.60;99.90;;;;;;5012170;28;20434;-80
2022/07/12 02:10:41;;;;;;;0.10;0.10;;;13.50;99.90;;;;;;5040123;28;20473;-80
2022/07/12 02:13:06;;;;;;;0.10;0.10;;;13.70;99.90;;;;;;5035389;28;20937;-81
2022/07/12 02:15:32;;;;;;;0.10;0.10;;;13.50;99.90;;;;;;5026134;28;20513;-81
2022/07/12 02:17:58;;;;;;;0.10;0.10;;;13.50;99.90;;;;;;5026038;28;20257;-80
2022/07/12 02:20:24;;;;;;;0.10;0.10;;;13.50;99.90;;;;;;5010872;28;20608;-80
2022/07/12 02:22:50;;;;;;;0.10;0.10;;;13.40;99.90;;;;;;5038356;28;20230;-80
2022/07/12 02:25:15;;;;;;;0.10;0.10;;;13.40;99.90;;;;;;5011478;28;20925;-80
2022/07/12 02:27:41;;;;;;;0.10;0.10;;;13.40;99.90;;;;;;5016966;28;20187;-79
2022/07/12 02:30:08;;;;;;;0.10;0.10;;;13.30;99.90;;;;;;5017365;28;20236;-80
2022/07/12 02:32:33;;;;;;;0.10;0.10;;;13.30;99.90;;;;;;5017319;28;20210;-80
2022/07/12 02:34:59;;;;;;;0.10;0.10;;;13.30;99.90;;;;;;5014789;28;20442;-80
2022/07/12 02:37:25;;;;;;;0.10;0.10;;;13.30;99.90;;;;;;5021432;28;20761;-80
2022/07/12 02:39:51;;;;;;;0.10;0.10;;;13.20;99.90;;;;;;5017008;28;20192;-80
2022/07/12 02:42:17;;;;;;;0.10;0.10;;;13.20;99.90;;;;;;5026255;28;20549;-80
2022/07/12 02:44:42;;;;;;;0.10;0.10;;;13.20;99.90;;;;;;5032426;28;20214;-80
2022/07/12 02:47:08;;;;;;;0.10;0.10;;;13.10;99.90;;;;;;5027873;28;20450;-80
2022/07/12 02:49:34;;;;;;;0.10;0.10;;;13.20;99.90;;;;;;5028722;28;20856;-80
2022/07/12 02:51:59;;;;;;;0.10;0.10;;;13.20;99.90;;;;;;5024408;28;20242;-80
2022/07/12 02:54:25;;;;;;;0.10;0.10;;;13.30;99.90;;;;;;5039652;28;20182;-80
2022/07/12 02:56:50;;;;;;;0.10;0.10;;;13.40;99.90;;;;;;5049201;28;21772;-80
2022/07/12 02:59:16;;;;;;;0.10;0.10;;;13.50;99.90;;;;;;5022550;28;20644;-80
2022/07/12 03:01:41;;;;;;;0.10;0.10;;;13.50;99.90;;;;;;5011028;28;20227;-80
2022/07/12 03:04:07;;;;;;;0.10;0.10;;;13.50;99.90;;;;;;5046484;28;20222;-80
2022/07/12 03:06:33;;;;;;;0.10;0.10;;;13.50;99.90;;;;;;5026412;28;20204;-80
2022/07/12 03:08:58;;;;;;;0.10;0.10;;;13.60;99.90;;;;;;5027736;28;20188;-80
2022/07/12 03:11:24;;;;;;;0.10;0.10;;;13.80;99.90;;;;;;5035095;28;20179;-80
2022/07/12 03:13:49;;;;;;;0.10;0.10;;;13.80;99.90;;;;;;5012741;28;20192;-80
2022/07/12 03:16:15;;;;;;;0.10;0.10;;;13.80;99.90;;;;;;5011201;28;20184;-80
2022/07/12 03:18:41;;;;;;;0.10;0.10;;;13.70;99.90;;;;;;5020613;28;20561;-80
2022/07/12 03:21:07;;;;;;;0.10;0.10;;;13.80;99.90;;;;;;5038086;28;20556;-80
2022/07/12 03:23:32;;;;;;;0.10;0.10;;;13.80;99.90;;;;;;5040015;28;20442;-81
2022/07/12 03:25:58;;;;;;;0.10;0.10;;;13.80;99.90;;;;;;5028443;28;20818;-80
2022/07/12 03:28:25;;;;;;;0.10;0.10;;;13.90;99.90;;;;;;5024317;28;20195;-80
2022/07/12 03:30:51;;;;;;;0.10;0.10;;;13.90;99.90;;;;;;5041527;28;20583;-80
2022/07/12 03:33:16;;;;;;;0.10;0.10;;;13.90;99.90;;;;;;5020696;28;20477;-81
2022/07/12 03:35:42;;;;;;;0.10;0.10;;;13.90;99.90;;;;;;5026030;28;20188;-81
2022/07/12 03:38:08;;;;;;;0.10;0.10;;;14.00;99.90;;;;;;5033269;28;20180;-80
2022/07/12 03:40:34;;;;;;;0.10;0.10;;;14.00;99.90;;;;;;5024316;28;20266;-81
2022/07/12 03:43:00;;;;;;;0.10;0.10;;;13.90;99.90;;;;;;5019568;28;20198;-80
2022/07/12 03:45:25;;;;;;;0.10;0.10;;;13.90;99.90;;;;;;5043622;28;20588;-80
2022/07/12 03:47:51;;;;;;;0.10;0.10;;;14.00;99.90;;;;;;5033776;28;20530;-80
2022/07/12 03:50:17;;;;;;;0.10;0.10;;;14.00;99.90;;;;;;5019405;28;20229;-80
2022/07/12 03:52:43;;;;;;;0.10;0.10;;;14.10;99.90;;;;;;5048399;28;20191;-81
2022/07/12 03:55:10;;;;;;;0.10;0.10;;;14.00;99.90;;;;;;5026595;28;20945;-80
2022/07/12 03:57:37;;;;;;;0.10;0.10;;;14.10;99.90;;;;;;5016816;28;20509;-81
2022/07/12 04:00:07;;;;;;;0.10;0.10;;;14.00;99.90;;;;;;5019105;28;20453;-80
2022/07/12 04:02:32;;;;;;;0.10;0.10;;;14.10;99.90;;;;;;5029970;28;20492;-80
2022/07/12 04:04:58;;;;;;;0.10;0.10;;;14.00;99.90;;;;;;5020781;28;20486;-80
2022/07/12 04:07:23;;;;;;;0.10;0.10;;;14.20;99.90;;;;;;5014212;28;20184;-80
2022/07/12 04:09:49;;;;;;;0.10;0.10;;;14.20;99.90;;;;;;5018382;28;20191;-80
2022/07/12 04:12:14;;;;;;;0.10;0.10;;;14.10;99.90;;;;;;5022075;28;20262;-80
2022/07/12 04:14:40;;;;;;;0.10;0.10;;;14.10;99.90;;;;;;5023048;28;20647;-80
2022/07/12 04:17:06;;;;;;;0.10;0.10;;;14.20;99.90;;;;;;5023720;28;20184;-80
2022/07/12 04:19:32;;;;;;;0.10;0.10;;;14.00;99.90;;;;;;5026248;28;20216;-81
2022/07/12 04:21:59;;;;;;;0.10;0.10;;;14.20;99.90;;;;;;5024858;28;20258;-80
2022/07/12 04:24:25;;;;;;;0.10;0.10;;;14.20;99.90;;;;;;5021796;28;20959;-81
2022/07/12 04:26:51;;;;;;;0.10;0.10;;;14.30;99.90;;;;;;5033861;28;20466;-81
2022/07/12 04:29:17;;;;;;;0.10;0.10;;;14.20;99.90;;;;;;5023712;28;20935;-80
2022/07/12 04:31:43;;;;;;;0.10;0.10;;;14.20;99.90;;;;;;5027992;28;20183;-80
2022/07/12 04:34:09;;;;;;;0.10;0.10;;;14.20;99.90;;;;;;5028728;28;20458;-80
2022/07/12 04:36:35;;;;;;;0.10;0.10;;;14.20;99.90;;;;;;5031899;28;20548;-80
2022/07/12 04:39:00;;;;;;;0.10;0.10;;;14.30;99.90;;;;;;5045459;28;20273;-80
2022/07/12 04:41:26;;;;;;;0.10;0.10;;;14.50;99.90;;;;;;5029478;28;20207;-80
2022/07/12 04:43:51;;;;;;;0.10;0.10;;;14.60;99.90;;;;;;5029827;28;20648;-81
2022/07/12 04:46:17;;;;;;;0.10;0.10;;;14.70;99.90;;;;;;5023291;28;20191;-81
2022/07/12 04:48:42;;;;;;;0.10;0.10;;;14.70;99.90;;;;;;5034302;28;21002;-81
2022/07/12 04:51:08;;;;;;;0.10;0.10;;;14.80;99.90;;;;;;5020937;28;20185;-80
2022/07/12 04:53:33;;;;;;;0.10;0.10;;;14.80;99.90;;;;;;5015750;28;20187;-80
2022/07/12 04:55:59;;;;;;;0.10;0.10;;;14.90;99.90;;;;;;5022074;28;20196;-81
2022/07/12 04:58:25;;;;;;;0.20;0.20;;;14.90;99.90;;;;;;5022491;28;20578;-80
2022/07/12 05:00:50;;;;;;;0.10;0.10;;;14.90;99.90;;;;;;5023388;28;20471;-80
2022/07/12 05:03:16;;;;;;;0.10;0.10;;;15.00;99.90;;;;;;5040217;28;20195;-81
2022/07/12 05:05:42;;;;;;;0.10;0.10;;;14.80;99.90;;;;;;5019683;28;20659;-81
2022/07/12 05:08:08;;;;;;;0.10;0.10;;;14.70;99.90;;;;;;5028747;28;20195;-80
2022/07/12 05:10:34;;;;;;;0.10;0.10;;;14.90;99.90;;;;;;5031398;28;20567;-80
2022/07/12 05:12:59;;;;;;;0.10;0.10;;;15.00;99.90;;;;;;5019586;28;20187;-80
2022/07/12 05:15:25;;;;;;;0.10;0.10;;;15.00;99.90;;;;;;5030342;28;20470;-80
2022/07/12 05:17:51;;;;;;;0.10;0.10;;;15.10;99.90;;;;;;5043581;28;20188;-80
2022/07/12 05:20:16;;;;;;;0.10;0.10;;;15.30;99.90;;;;;;5026179;28;20888;-81
2022/07/12 05:22:42;;;;;;;0.10;0.10;;;15.30;99.90;;;;;;5033523;28;20182;-80
2022/07/12 05:25:08;;;;;;;0.10;0.10;;;15.30;99.90;;;;;;5033278;28;20302;-80
2022/07/12 05:27:34;;;;;;;0.10;0.10;;;15.30;99.90;;;;;;5029112;28;20189;-80
2022/07/12 05:30:00;;;;;;;0.10;0.10;;;15.40;99.90;;;;;;5023743;28;20439;-80
2022/07/12 05:32:26;;;;;;;0.10;0.10;;;15.60;99.90;;;;;;5034053;28;20446;-80
2022/07/12 05:34:51;;;;;;;0.10;0.10;;;15.60;99.90;;;;;;5038591;28;20252;-80
2022/07/12 05:37:17;;;;;;;0.10;0.10;;;15.40;99.90;;;;;;5029409;28;20650;-80
2022/07/12 05:39:42;;;;;;;0.10;0.10;;;15.50;99.90;;;;;;5031270;28;20535;-80
2022/07/12 05:42:09;;;;;;;0.10;0.10;;;15.40;99.90;;;;;;5029337;28;20183;-82
2022/07/12 05:44:34;;;;;;;0.10;0.10;;;15.60;99.90;;;;;;5026889;28;20265;-81
2022/07/12 05:47:00;;;;;;;0.10;0.10;;;15.70;99.90;;;;;;5023017;28;20466;-81
2022/07/12 05:49:26;;;;;;;0.10;0.10;;;15.60;99.90;;;;;;5039698;28;20627;-81
2022/07/12 05:54:36;;;;;;;0.10;0.10;;;15.70;99.90;;;;;;5022824;28;20265;-80
2022/07/12 05:57:01;;;;;;;0.10;0.10;;;15.70;99.90;;;;;;5026316;28;20957;-82
2022/07/12 05:59:29;;;;;;;0.10;0.10;;;15.70;99.90;;;;;;5026966;28;20207;-81
2022/07/12 06:01:54;;;;;;;0.10;0.10;;;15.60;99.90;;;;;;5021912;28;20231;-80
2022/07/12 06:04:20;;;;;;;0.10;0.10;;;15.40;99.90;;;;;;5041783;28;20488;-80
2022/07/12 06:06:45;;;;;;;0.10;0.10;;;15.60;99.90;;;;;;5040819;28;20215;-80
2022/07/12 06:09:11;;;;;;;0.10;0.10;;;15.60;99.90;;;;;;5035830;28;20274;-80
2022/07/12 06:11:36;;;;;;;0.10;0.10;;;15.70;99.90;;;;;;5026229;28;20209;-80
2022/07/12 06:14:02;;;;;;;0.10;0.10;;;15.70;99.90;;;;;;5024415;28;20226;-79
2022/07/12 06:16:27;;;;;;;0.10;0.10;;;15.70;99.90;;;;;;5025126;28;20675;-81
2022/07/12 06:18:53;;;;;;;0.10;0.10;;;15.60;99.90;;;;;;5023344;28;20194;-80
2022/07/12 06:21:18;;;;;;;0.10;0.10;;;15.70;99.90;;;;;;5028998;28;20918;-80
2022/07/12 06:23:44;;;;;;;0.10;0.10;;;15.60;99.90;;;;;;5030299;28;20698;-79
2022/07/12 06:26:09;;;;;;;0.10;0.10;;;15.70;99.90;;;;;;5022772;28;20203;-80
2022/07/12 06:28:36;;;;;;;0.10;0.10;;;15.80;99.90;;;;;;5021495;28;20717;-80
2022/07/12 06:31:02;;;;;;;0.10;0.10;;;15.70;99.90;;;;;;5027257;28;20714;-81
2022/07/12 06:33:27;;;;;;;0.10;0.10;;;15.80;99.90;;;;;;5028119;28;20530;-82
2022/07/12 06:35:53;;;;;;;0.10;0.10;;;15.90;99.90;;;;;;5014314;28;20197;-80
2022/07/12 06:38:19;;;;;;;0.10;0.10;;;15.90;99.90;;;;;;5021145;28;20188;-81
2022/07/12 06:40:44;;;;;;;0.10;0.10;;;15.80;99.90;;;;;;5028751;28;20198;-81
2022/07/12 06:43:13;;;;;;;0.10;0.10;;;15.60;99.90;;;;;;5026408;28;20223;-81
2022/07/12 06:45:39;;;;;;;0.10;0.10;;;15.80;99.90;;;;;;5029117;28;20245;-80
2022/07/12 06:48:05;;;;;;;0.10;0.10;;;15.90;99.90;;;;;;5024993;28;21121;-80
2022/07/12 06:50:31;;;;;;;0.10;0.10;;;16.00;99.90;;;;;;5032024;28;20493;-80
2022/07/12 06:52:57;;;;;;;0.10;0.10;;;15.90;99.90;;;;;;5045608;28;20438;-80
2022/07/12 06:55:23;;;;;;;0.10;0.10;;;16.00;99.90;;;;;;5029191;28;20274;-81
2022/07/12 06:57:49;;;;;;;0.10;0.10;;;16.00;99.90;;;;;;5026837;28;20533;-81
2022/07/12 07:00:14;;;;;;;0.10;0.10;;;16.00;99.90;;;;;;5026408;28;20756;-80
2022/07/12 07:02:40;;;;;;;0.10;0.10;;;16.10;99.90;;;;;;5029129;28;20433;-80
2022/07/12 07:05:06;;;;;;;0.10;0.10;;;16.20;99.90;;;;;;5021400;28;20227;-80
2022/07/12 07:07:32;;;;;;;0.10;0.10;;;16.30;99.90;;;;;;5026134;28;20270;-81
2022/07/12 07:09:59;;;;;;;0.10;0.10;;;16.40;99.90;;;;;;5026219;28;20437;-80
2022/07/12 07:12:24;;;;;;;0.10;0.10;;;16.20;99.90;;;;;;5027912;28;20418;-81
2022/07/12 07:14:50;;;;;;;0.10;0.10;;;16.20;99.90;;;;;;5026604;28;20302;-81
2022/07/12 07:17:19;;;;;;;0.10;0.10;;;16.00;99.90;;;;;;5029630;28;20195;-80
2022/07/12 07:19:45;;;;;;;0.10;0.10;;;15.90;99.90;;;;;;5020217;28;20282;-81
2022/07/12 07:22:12;;;;;;;0.10;0.10;;;16.10;99.90;;;;;;5014070;28;20534;-81
2022/07/12 07:24:38;;;;;;;0.10;0.10;;;16.10;99.90;;;;;;5025233;28;20627;-81
2022/07/12 07:27:04;;;;;;;0.10;0.10;;;16.10;99.90;;;;;;5016640;28;20917;-80
2022/07/12 07:32:13;;;;;;;0.10;0.10;;;16.20;99.90;;;;;;5013967;28;20414;-81
2022/07/12 07:34:39;;;;;;;0.10;0.10;;;16.10;99.90;;;;;;5021398;28;20447;-81
2022/07/12 07:37:05;;;;;;;0.10;0.10;;;16.30;99.90;;;;;;5032395;28;20705;-80
2022/07/12 07:39:30;;;;;;;0.10;0.10;;;16.50;99.90;;;;;;5033661;28;20552;-80
2022/07/12 07:41:56;;;;;;;0.10;0.10;;;16.60;99.90;;;;;;5029879;28;20919;-79
2022/07/12 07:44:21;;;;;;;0.10;0.10;;;16.40;99.90;;;;;;5033751;28;20204;-82
2022/07/12 07:46:47;;;;;;;0.10;0.10;;;16.50;99.90;;;;;;5026852;28;20648;-80
2022/07/12 07:49:12;;;;;;;0.10;0.10;;;16.50;99.90;;;;;;5031453;28;20192;-81
2022/07/12 07:51:38;;;;;;;0.10;0.10;;;16.60;99.90;;;;;;5022929;28;20269;-80
2022/07/12 07:54:03;;;;;;;0.10;0.10;;;16.70;99.90;;;;;;5016516;28;20194;-80
2022/07/12 07:56:29;;;;;;;0.10;0.10;;;16.70;99.90;;;;;;5032377;28;20192;-80
2022/07/12 07:58:55;;;;;;;0.10;0.10;;;16.70;99.90;;;;;;5029966;28;20584;-80
2022/07/12 08:01:41;;;;;;;0.10;0.10;;;16.70;99.90;;;;;;5033123;28;20472;-81
2022/07/12 08:04:06;;;;;;;0.10;0.10;;;16.60;99.90;;;;;;5020092;28;20637;-83
2022/07/12 08:06:32;;;;;;;0.10;0.10;;;16.50;99.90;;;;;;5022655;28;20431;-81
2022/07/12 08:08:57;;;;;;;0.10;0.10;;;16.60;99.90;;;;;;5028563;28;20242;-81
2022/07/12 08:11:23;;;;;;;0.10;0.10;;;16.60;99.90;;;;;;5032514;28;20803;-81
2022/07/12 08:13:48;;;;;;;0.10;0.10;;;16.60;99.90;;;;;;5031788;28;20180;-81
2022/07/12 08:16:14;;;;;;;0.10;0.10;;;16.80;99.90;;;;;;5026027;28;20191;-80
2022/07/12 08:18:39;;;;;;;0.10;0.10;;;17.00;99.90;;;;;;5027241;28;20199;-81
2022/07/12 08:21:06;;;;;;;0.10;0.10;;;17.30;99.90;;;;;;5023682;28;20199;-78
2022/07/12 08:23:31;;;;;;;0.10;0.10;;;17.70;99.90;;;;;;5024454;28;20692;-78
2022/07/12 08:25:57;;;;;;;0.10;0.10;;;17.80;99.90;;;;;;5026200;28;20458;-79
2022/07/12 08:28:23;;;;;;;0.10;0.10;;;17.70;99.90;;;;;;5022260;28;20306;-80
2022/07/12 08:30:48;;;;;;;0.10;0.10;;;17.50;99.90;;;;;;5025323;28;20670;-81
2022/07/12 08:33:14;;;;;;;0.10;0.10;;;17.70;99.90;;;;;;5027860;28;20456;-80
2022/07/12 08:35:40;;;;;;;0.10;0.10;;;17.80;99.90;;;;;;5027057;28;20274;-81
2022/07/12 08:38:06;;;;;;;0.10;0.00;;;17.90;99.90;;;;;;5024748;28;20533;-81
2022/07/12 08:40:31;;;;;;;0.10;0.10;;;17.90;99.90;;;;;;5027778;28;20663;-81
2022/07/12 08:42:57;;;;;;;0.10;0.10;;;17.90;99.90;;;;;;5025332;28;20278;-83
2022/07/12 08:45:23;;;;;;;0.10;0.10;;;18.00;99.90;;;;;;5025411;28;20239;-81
2022/07/12 08:47:48;;;;;;;0.10;0.10;;;18.10;99.90;;;;;;5032029;28;20427;-83
2022/07/12 08:50:19;;;;;;;0.10;0.10;;;18.30;99.90;;;;;;5026049;28;20196;-81
2022/07/12 08:52:48;;;;;;;0.10;0.00;;;18.40;99.90;;;;;;5026963;28;20222;-80
2022/07/12 08:55:33;;;;;;;0.10;0.10;;;18.20;99.90;;;;;;5043184;28;20434;-81
2022/07/12 08:58:07;;;;;;;0.10;0.10;;;18.00;99.90;;;;;;5028088;28;20476;-81
2022/07/12 09:00:33;;;;;;;0.10;0.00;;;18.10;99.90;;;;;;5044411;28;20879;-83
2022/07/12 09:03:01;;;;;;;0.10;0.10;;;18.10;99.90;;;;;;5024557;28;20531;-81
2022/07/12 09:05:28;;;;;;;0.10;0.10;;;18.10;99.90;;;;;;5034146;28;20520;-81
2022/07/12 09:08:05;;;;;;;0.10;0.10;;;18.20;99.90;;;;;;5040718;28;20499;-82
2022/07/12 09:10:31;;;;;;;0.10;0.00;;;18.20;99.90;;;;;;5028834;28;20477;-81
2022/07/12 09:12:57;;;;;;;0.10;0.10;;;18.20;99.90;;;;;;5031451;28;21204;-83
2022/07/12 09:15:24;;;;;;;0.10;0.10;;;18.30;99.90;;;;;;5030285;28;20491;-81
2022/07/12 09:18:01;;;;;;;0.10;0.10;;;18.50;99.90;;;;;;5048450;28;20918;-80
2022/07/12 09:20:31;;;;;;;0.10;0.00;;;18.80;99.90;;;;;;5042861;28;20494;-82
2022/07/12 09:23:09;;;;;;;0.10;0.10;;;19.00;99.90;;;;;;5033071;28;20453;-81
2022/07/12 09:25:36;;;;;;;0.10;0.10;;;19.20;99.90;;;;;;5040927;28;20539;-81
2022/07/12 09:28:08;;;;;;;0.10;0.10;;;19.20;99.90;;;;;;5041053;28;20459;-82
2022/07/12 09:30:37;;;;;;;0.10;0.10;;;19.30;99.90;;;;;;5026226;28;20460;-82
2022/07/12 09:36:10;;;;;;;0.10;0.00;;;19.70;99.90;;;;;;5024626;28;20449;-83
2022/07/12 09:39:00;;;;;;;0.10;0.10;;;19.80;99.90;;;;;;5019622;28;20495;-81
2022/07/12 09:41:26;;;;;;;0.10;0.00;;;19.90;99.90;;;;;;5033774;28;20457;-81
2022/07/12 09:43:53;;;;;;;0.10;0.00;;;20.00;99.90;;;;;;5036325;28;20484;-81
2022/07/12 09:46:18;;;;;;;0.10;0.00;;;20.40;99.90;;;;;;5019927;28;20800;-82
2022/07/12 09:48:46;;;;;;;0.10;0.00;;;20.20;99.90;;;;;;5028117;28;20454;-83
2022/07/12 09:51:17;;;;;;;0.10;0.00;;;20.50;99.90;;;;;;5031029;28;21199;-81
2022/07/12 09:53:47;;;;;;;0.10;0.00;;;20.60;99.90;;;;;;5022837;28;20442;-83
2022/07/12 09:56:19;;;;;;;0.10;0.00;;;20.70;99.90;;;;;;5044609;28;20417;-81
2022/07/12 09:58:59;;;;;;;0.10;0.00;;;20.40;99.90;;;;;;5036327;28;20438;-82
2022/07/12 10:01:25;;;;;;;0.10;0.00;;;20.90;99.90;;;;;;5030244;28;20844;-82
2022/07/12 10:03:52;;;;;;;0.10;0.00;;;21.90;99.90;;;;;;5026242;28;20506;-82
2022/07/12 10:06:28;;;;;;;0.10;0.00;;;22.40;99.90;;;;;;5028616;28;20577;-82
2022/07/12 10:08:55;;;;;;;0.10;0.00;;;22.30;99.90;;;;;;5029223;28;20881;-82
2022/07/12 10:11:22;;;;;;;0.10;0.00;;;22.50;99.90;;;;;;5028047;28;20476;-82
2022/07/12 10:13:48;;;;;;;0.10;0.00;;;22.60;99.90;;;;;;5045581;28;20426;-82
2022/07/12 10:16:16;;;;;;;0.10;0.00;;;23.00;99.90;;;;;;5028469;28;20452;-82
2022/07/12 10:18:41;;;;;;;0.10;0.00;;;22.70;99.90;;;;;;5026982;28;20450;-83
2022/07/12 10:21:21;;;;;;;0.10;0.00;;;22.60;99.90;;;;;;5023304;28;20453;-82
2022/07/12 10:23:47;;;;;;;0.10;0.00;;;21.70;99.90;;;;;;5027863;28;20651;-84
2022/07/12 10:26:16;;;;;;;0.10;0.00;;;22.10;99.90;;;;;;5028035;28;20578;-83
2022/07/12 10:28:54;;;;;;;0.10;0.00;;;22.20;99.90;;;;;;5025978;28;20193;-82
2022/07/12 10:31:23;;;;;;;0.10;0.00;;;23.00;99.90;;;;;;5026273;28;20449;-83
2022/07/12 10:34:07;;;;;;;0.10;0.00;;;23.30;99.90;;;;;;5024415;28;21201;-84
2022/07/12 10:36:55;;;;;;;0.10;0.00;;;24.10;99.90;;;;;;5028184;28;20550;-84
2022/07/12 10:39:22;;;;;;;0.10;0.00;;;24.20;99.90;;;;;;5039767;28;20525;-83
2022/07/12 10:42:06;;;;;;;0.10;0.00;;;25.10;99.90;;;;;;5024725;28;20458;-81
2022/07/12 10:44:41;;;;;;;0.10;0.00;;;25.20;99.90;;;;;;5024561;28;20474;-84
2022/07/12 10:47:07;;;;;;;0.10;0.00;;;25.30;99.90;;;;;;5021678;28;20535;-83
2022/07/12 10:49:35;;;;;;;0.10;0.00;;;25.50;99.90;;;;;;5024724;28;20457;-82
2022/07/12 10:52:10;;;;;;;0.10;0.00;;;25.30;99.90;;;;;;5034801;28;20544;-84
2022/07/12 10:54:55;;;;;;;0.10;0.00;;;25.20;99.90;;;;;;5025496;28;20477;-86
2022/07/12 10:57:40;;;;;;;0.10;0.00;;;25.30;99.90;;;;;;5027051;28;20440;-85
2022/07/12 11:00:07;;;;;;;0.10;0.00;;;25.40;99.90;;;;;;5027202;28;20433;-83
2022/07/12 11:02:32;;;;;;;0.10;0.00;;;25.70;99.90;;;;;;5027988;28;20478;-83
2022/07/12 11:04:58;;;;;;;0.10;0.00;;;25.00;99.90;;;;;;5030966;28;20872;-85
2022/07/12 11:07:25;;;;;;;0.10;0.00;;;25.20;99.90;;;;;;5053280;28;20925;-83
2022/07/12 11:09:54;;;;;;;0.10;0.00;;;25.70;99.90;;;;;;5050581;28;20188;-84
2022/07/12 11:12:20;;;;;;;0.10;0.00;;;25.80;99.90;;;;;;5046243;28;20437;-82
2022/07/12 11:14:46;;;;;;;0.10;0.00;;;25.90;99.90;;;;;;5044647;28;20460;-85
2022/07/12 11:17:12;;;;;;;0.10;0.00;;;26.10;99.90;;;;;;5036125;28;20265;-83
2022/07/12 11:19:38;;;;;;;0.10;0.00;;;26.10;99.90;;;;;;5035042;28;21052;-81
2022/07/12 11:22:04;;;;;;;0.10;0.00;;;25.50;99.90;;;;;;5025890;28;20211;-82
2022/07/12 11:24:37;;;;;;;0.10;0.00;;;25.30;99.90;;;;;;5040470;28;20216;-81
2022/07/12 11:27:05;;;;;;;0.10;0.00;;;26.00;99.90;;;;;;5053454;28;21027;-81
2022/07/12 11:29:30;;;;;;;0.10;0.00;;;26.10;99.90;;;;;;5031802;28;20441;-79
2022/07/12 11:32:00;;;;;;;0.10;0.00;;;26.40;99.90;;;;;;5040958;28;21056;-80
2022/07/12 11:34:26;;;;;;;0.10;0.00;;;26.80;99.90;;;;;;5034445;28;20228;-80
2022/07/12 11:37:00;;;;;;;0.10;0.00;;;27.00;99.90;;;;;;5038131;28;20465;-82
2022/07/12 11:39:35;;;;;;;0.10;0.00;;;27.20;99.90;;;;;;5035911;28;20180;-81
2022/07/12 11:42:01;;;;;;;0.10;0.00;;;26.80;99.90;;;;;;5035847;28;20449;-81
2022/07/12 11:44:47;;;;;;;0.10;0.00;;;27.10;99.90;;;;;;5043188;28;20529;-83
2022/07/12 11:47:14;;;;;;;0.10;0.00;;;27.00;99.90;;;;;;5036267;28;20521;-81
2022/07/12 11:49:48;;;;;;;0.10;0.00;;;27.10;99.90;;;;;;5037908;28;20455;-82
2022/07/12 11:52:17;;;;;;;0.10;0.00;;;27.10;99.90;;;;;;5041900;28;20568;-82
2022/07/12 11:54:43;;;;;;;0.10;0.00;;;27.10;99.90;;;;;;5032229;28;20824;-83
2022/07/12 11:57:10;;;;;;;0.10;0.00;;;27.10;99.90;;;;;;5023674;28;20437;-84
2022/07/12 11:59:36;;;;;;;0.10;0.00;;;27.40;99.90;;;;;;5034434;28;20955;-81
2022/07/12 12:02:05;;;;;;;0.10;0.00;;;27.40;99.90;;;;;;5030053;28;20465;-81
2022/07/12 12:04:31;;;;;;;0.10;0.00;;;26.90;99.90;;;;;;5022607;28;20216;-81
2022/07/12 12:06:57;;;;;;;0.10;0.00;;;27.00;99.90;;;;;;5023256;28;20434;-82
2022/07/12 12:09:22;;;;;;;0.10;0.00;;;27.60;99.90;;;;;;5021676;28;20455;-83
2022/07/12 12:11:48;;;;;;;0.10;0.00;;;28.10;99.90;;;;;;5021476;28;20187;-84
2022/07/12 12:14:13;;;;;;;0.10;0.00;;;28.00;99.90;;;;;;5022844;28;21015;-82
2022/07/12 12:16:39;;;;;;;0.10;0.00;;;28.50;99.90;;;;;;5008857;28;20273;-82
2022/07/12 12:19:11;;;;;;;0.10;0.00;;;28.40;99.90;;;;;;5019181;28;20195;-83
2022/07/12 12:21:37;;;;;;;0.10;0.00;;;28.00;99.90;;;;;;5022125;28;20207;-81
2022/07/12 12:24:10;;;;;;;0.10;0.00;;;28.30;99.90;;;;;;5032303;28;20622;-83
2022/07/12 12:26:36;;;;;;;0.10;0.00;;;28.40;99.90;;;;;;5025272;28;20196;-81
2022/07/12 12:29:02;;;;;;;0.10;0.00;;;28.50;99.90;;;;;;5029892;28;21016;-82
2022/07/12 12:31:27;;;;;;;0.10;0.00;;;27.80;99.90;;;;;;5028823;28;20651;-82
2022/07/12 12:33:58;;;;;;;0.10;0.00;;;28.40;99.90;;;;;;5029904;28;20441;-84
2022/07/12 12:36:36;;;;;;;0.10;0.00;;;28.20;99.90;;;;;;5010412;28;20188;-82
2022/07/12 12:39:05;;;;;;;0.00;0.00;;;28.20;99.90;;;;;;5029319;28;20452;-82
2022/07/12 12:41:39;;;;;;;0.00;0.00;;;28.30;99.90;;;;;;5020028;28;20449;-81
2022/07/12 12:44:07;;;;;;;0.00;0.00;;;27.90;99.90;;;;;;5019142;28;20474;-83
2022/07/12 12:46:55;;;;;;;0.00;0.00;;;27.90;99.90;;;;;;5026955;28;20465;-83
2022/07/12 12:49:50;;;;;;;0.00;0.00;;;27.30;99.90;;;;;;5024523;28;20446;-83
2022/07/12 12:52:17;;;;;;;0.10;0.00;;;27.20;99.90;;;;;;5035536;28;20870;-81
2022/07/12 12:54:44;;;;;;;0.00;0.00;;;27.60;99.90;;;;;;5025269;28;20472;-82
2022/07/12 12:57:11;;;;;;;0.10;0.00;;;27.50;99.90;;;;;;5021852;28;20451;-83